Главная страница
METAR-TAF:

METAR-TAF

Аэропорты :

Каир, Египет

широта: 30-08N, долгота: 031-24E, высота над уровнем моря: 64 м

Текущие метеонаблюдения

Эта сводка был подготовлена 26 минут назад, в 11:30 UTC
Ветер 7 Узел от восточно-северо-восточный
Температура 32°C
Влажность 26%
Давление 1012 hPa
Видимость 10 км и более
Нет облачности ниже 1500 м, и нет кучево-дождевой облачности

METAR: HECA 211130Z 06007KT CAVOK 32/10 Q1012 NOSIG

Время: 13:56 (11:56 UTC)

Прогноз

Эта сводка был подготовлена 56 минут назад, в 11:00 UTC
Прогноз действительный с 21-го 12 UTC до 22-го 18 UTC
Ветер 8 Узел от восточно-северо-восточный
Видимость 10 км и более
небольшая облачность на высоте 2500 фута

TAF: HECA 211100Z 2112/2218 06008KT 9999 FEW025

Метеонаблюдения и прогнозы для более 4000 аэропортов (сводки METAR и TAF).

Имеющиеся станции представлены на карте желтыми и красными точками.

Чтобы увидеть название станции, наведите на нее мышь.

Затем щелкните, чтобы увидеть метеонаблюдения и метеопрогнозы.

Управление картой: чтобы увеличить масштаб, щелкните зеленые кнопки с черным крестиком; чтобы уменьшить масштаб, щелкните зеленую кнопку с тире; для просмотра соседних карт щелкайте зеленые стрелки.


METAR-TAF: